sensor_id;sensor_type;location;lat;lon;timestamp;P1;durP1;ratioP1;P2;durP2;ratioP2
8133;SDS011;7113;53.650;9.916;2022-07-01T15:34:59;3.70;;;3.40;;
8133;SDS011;7113;53.650;9.916;2022-07-01T15:37:03;6.03;;;2.67;;
8133;SDS011;7113;53.650;9.916;2022-07-01T15:39:06;4.43;;;4.00;;
8133;SDS011;7113;53.650;9.916;2022-07-01T15:41:10;4.70;;;4.20;;
8133;SDS011;7113;53.650;9.916;2022-07-01T15:43:13;4.13;;;3.73;;
8133;SDS011;7113;53.650;9.916;2022-07-01T15:45:16;8.00;;;3.43;;
8133;SDS011;7113;53.650;9.916;2022-07-01T15:47:19;6.07;;;3.27;;
8133;SDS011;7113;53.650;9.916;2022-07-01T15:49:35;6.83;;;3.40;;
8133;SDS011;7113;53.650;9.916;2022-07-01T15:51:41;3.10;;;2.60;;
8133;SDS011;7113;53.650;9.916;2022-07-01T15:53:44;5.60;;;3.70;;
8133;SDS011;7113;53.650;9.916;2022-07-01T15:55:47;2.67;;;2.50;;
8133;SDS011;7113;53.650;9.916;2022-07-01T15:57:50;4.70;;;3.20;;
8133;SDS011;7113;53.650;9.916;2022-07-01T15:59:54;11.83;;;2.80;;
8133;SDS011;7113;53.650;9.916;2022-07-01T16:01:57;6.20;;;3.63;;
8133;SDS011;7113;53.650;9.916;2022-07-01T16:04:00;7.70;;;3.00;;
8133;SDS011;7113;53.650;9.916;2022-07-01T16:06:05;4.30;;;3.53;;
8133;SDS011;7113;53.650;9.916;2022-07-01T16:08:12;4.70;;;3.30;;
8133;SDS011;7113;53.650;9.916;2022-07-01T16:10:18;3.33;;;3.10;;
8133;SDS011;7113;53.650;9.916;2022-07-01T16:12:23;5.60;;;3.20;;
8133;SDS011;7113;53.650;9.916;2022-07-01T16:14:28;2.80;;;2.60;;
8133;SDS011;7113;53.650;9.916;2022-07-01T16:16:32;3.33;;;3.07;;
8133;SDS011;7113;53.650;9.916;2022-07-01T16:18:35;3.37;;;2.33;;
8133;SDS011;7113;53.650;9.916;2022-07-01T16:20:39;4.50;;;2.77;;
8133;SDS011;7113;53.650;9.916;2022-07-01T16:22:43;12.77;;;2.97;;
8133;SDS011;7113;53.650;9.916;2022-07-01T16:24:52;3.20;;;2.63;;
8133;SDS011;7113;53.650;9.916;2022-07-01T16:26:55;3.80;;;2.70;;
8133;SDS011;7113;53.650;9.916;2022-07-01T16:28:59;2.60;;;2.50;;
8133;SDS011;7113;53.650;9.916;2022-07-01T16:31:03;6.43;;;3.13;;
8133;SDS011;7113;53.650;9.916;2022-07-01T16:33:08;4.27;;;2.90;;
8133;SDS011;7113;53.650;9.916;2022-07-01T16:35:11;5.70;;;3.00;;
8133;SDS011;7113;53.650;9.916;2022-07-01T16:37:14;3.77;;;2.67;;
8133;SDS011;7113;53.650;9.916;2022-07-01T16:39:19;4.00;;;3.00;;
8133;SDS011;7113;53.650;9.916;2022-07-01T16:41:29;8.97;;;3.83;;
8133;SDS011;7113;53.650;9.916;2022-07-01T16:43:39;3.00;;;2.80;;
8133;SDS011;7113;53.650;9.916;2022-07-01T16:45:48;6.10;;;2.90;;
8133;SDS011;7113;53.650;9.916;2022-07-01T16:47:53;7.10;;;3.73;;
8133;SDS011;7113;53.650;9.916;2022-07-01T16:49:59;3.40;;;2.40;;
8133;SDS011;7113;53.650;9.916;2022-07-01T16:52:07;6.70;;;4.07;;
8133;SDS011;7113;53.650;9.916;2022-07-01T16:54:12;3.87;;;3.00;;
8133;SDS011;7113;53.650;9.916;2022-07-01T16:56:16;3.30;;;3.00;;
8133;SDS011;7113;53.650;9.916;2022-07-01T16:58:23;6.00;;;3.67;;
8133;SDS011;7113;53.650;9.916;2022-07-01T17:00:27;5.23;;;3.13;;
8133;SDS011;7113;53.650;9.916;2022-07-01T17:02:30;7.33;;;2.83;;
8133;SDS011;7113;53.650;9.916;2022-07-01T17:04:33;6.37;;;2.93;;
8133;SDS011;7113;53.650;9.916;2022-07-01T17:06:36;4.23;;;2.40;;
8133;SDS011;7113;53.650;9.916;2022-07-01T17:08:40;5.20;;;2.33;;
8133;SDS011;7113;53.650;9.916;2022-07-01T17:10:44;5.10;;;4.23;;
8133;SDS011;7113;53.650;9.916;2022-07-01T17:12:48;2.83;;;2.73;;
8133;SDS011;7113;53.650;9.916;2022-07-01T17:14:54;4.50;;;2.10;;
8133;SDS011;7113;53.650;9.916;2022-07-01T17:16:59;7.90;;;2.63;;
8133;SDS011;7113;53.650;9.916;2022-07-01T17:19:03;13.00;;;2.80;;
8133;SDS011;7113;53.650;9.916;2022-07-01T17:21:06;4.87;;;3.33;;
8133;SDS011;7113;53.650;9.916;2022-07-01T17:23:12;2.20;;;2.10;;
8133;SDS011;7113;53.650;9.916;2022-07-01T17:25:19;3.40;;;2.20;;
8133;SDS011;7113;53.650;9.916;2022-07-01T17:27:26;3.80;;;2.83;;
8133;SDS011;7113;53.650;9.916;2022-07-01T17:29:35;6.20;;;2.43;;
8133;SDS011;7113;53.650;9.916;2022-07-01T17:31:43;2.40;;;2.30;;
8133;SDS011;7113;53.650;9.916;2022-07-01T17:33:51;4.43;;;2.63;;
8133;SDS011;7113;53.650;9.916;2022-07-01T17:35:55;3.03;;;2.40;;
8133;SDS011;7113;53.650;9.916;2022-07-01T17:38:02;4.10;;;3.00;;
8133;SDS011;7113;53.650;9.916;2022-07-01T17:40:06;6.43;;;3.17;;
8133;SDS011;7113;53.650;9.916;2022-07-01T17:42:09;9.67;;;3.07;;
8133;SDS011;7113;53.650;9.916;2022-07-01T17:44:13;4.00;;;2.60;;
8133;SDS011;7113;53.650;9.916;2022-07-01T17:46:16;2.20;;;2.10;;
8133;SDS011;7113;53.650;9.916;2022-07-01T17:48:23;3.90;;;2.87;;
8133;SDS011;7113;53.650;9.916;2022-07-01T17:50:26;6.73;;;3.20;;
8133;SDS011;7113;53.650;9.916;2022-07-01T17:52:30;2.73;;;2.53;;
8133;SDS011;7113;53.650;9.916;2022-07-01T17:54:35;6.40;;;2.57;;
8133;SDS011;7113;53.650;9.916;2022-07-01T17:56:38;7.10;;;2.73;;
8133;SDS011;7113;53.650;9.916;2022-07-01T17:58:42;3.63;;;2.50;;
8133;SDS011;7113;53.650;9.916;2022-07-01T18:00:47;4.80;;;2.00;;
8133;SDS011;7113;53.650;9.916;2022-07-01T18:02:50;14.93;;;2.30;;
8133;SDS011;7113;53.650;9.916;2022-07-01T18:04:56;2.13;;;1.80;;
8133;SDS011;7113;53.650;9.916;2022-07-01T18:06:59;6.13;;;3.40;;
8133;SDS011;7113;53.650;9.916;2022-07-01T18:09:03;2.77;;;1.67;;
8133;SDS011;7113;53.650;9.916;2022-07-01T18:11:07;6.17;;;2.10;;
8133;SDS011;7113;53.650;9.916;2022-07-01T18:13:16;3.13;;;1.57;;
8133;SDS011;7113;53.650;9.916;2022-07-01T18:15:23;3.03;;;1.27;;
8133;SDS011;7113;53.650;9.916;2022-07-01T18:17:38;4.70;;;2.10;;
8133;SDS011;7113;53.650;9.916;2022-07-01T18:22:08;1.57;;;1.10;;
8133;SDS011;7113;53.650;9.916;2022-07-01T18:24:13;9.10;;;1.67;;
8133;SDS011;7113;53.650;9.916;2022-07-01T18:26:18;4.83;;;1.50;;
8133;SDS011;7113;53.650;9.916;2022-07-01T18:28:24;8.00;;;1.40;;
8133;SDS011;7113;53.650;9.916;2022-07-01T18:30:32;5.23;;;1.70;;
8133;SDS011;7113;53.650;9.916;2022-07-01T18:32:37;9.17;;;1.97;;
8133;SDS011;7113;53.650;9.916;2022-07-01T18:34:42;1.73;;;1.63;;
8133;SDS011;7113;53.650;9.916;2022-07-01T18:36:50;2.03;;;1.53;;
8133;SDS011;7113;53.650;9.916;2022-07-01T18:38:56;6.50;;;2.23;;
8133;SDS011;7113;53.650;9.916;2022-07-01T18:40:59;3.17;;;1.73;;
8133;SDS011;7113;53.650;9.916;2022-07-01T18:43:02;3.03;;;1.67;;
8133;SDS011;7113;53.650;9.916;2022-07-01T18:45:07;2.73;;;1.60;;
8133;SDS011;7113;53.650;9.916;2022-07-01T18:47:10;13.13;;;1.83;;
8133;SDS011;7113;53.650;9.916;2022-07-01T18:49:13;2.97;;;2.50;;
8133;SDS011;7113;53.650;9.916;2022-07-01T18:51:17;4.87;;;2.13;;
8133;SDS011;7113;53.650;9.916;2022-07-01T18:53:20;3.17;;;1.80;;
8133;SDS011;7113;53.650;9.916;2022-07-01T18:55:26;4.03;;;1.93;;
8133;SDS011;7113;53.650;9.916;2022-07-01T18:57:30;9.40;;;1.73;;
8133;SDS011;7113;53.650;9.916;2022-07-01T18:59:33;2.83;;;1.80;;
8133;SDS011;7113;53.650;9.916;2022-07-01T19:01:36;4.83;;;2.10;;
8133;SDS011;7113;53.650;9.916;2022-07-01T19:03:39;5.40;;;2.00;;
8133;SDS011;7113;53.650;9.916;2022-07-01T19:05:42;2.30;;;1.93;;
8133;SDS011;7113;53.650;9.916;2022-07-01T19:07:45;3.17;;;1.47;;
8133;SDS011;7113;53.650;9.916;2022-07-01T19:09:48;19.73;;;2.27;;
8133;SDS011;7113;53.650;9.916;2022-07-01T19:11:54;3.30;;;1.63;;
8133;SDS011;7113;53.650;9.916;2022-07-01T19:13:57;3.90;;;1.87;;
8133;SDS011;7113;53.650;9.916;2022-07-01T19:16:00;2.33;;;2.07;;
8133;SDS011;7113;53.650;9.916;2022-07-01T19:18:04;6.53;;;2.20;;
8133;SDS011;7113;53.650;9.916;2022-07-01T19:20:07;3.70;;;2.70;;
8133;SDS011;7113;53.650;9.916;2022-07-01T19:22:11;3.63;;;1.90;;
8133;SDS011;7113;53.650;9.916;2022-07-01T19:24:14;2.23;;;2.10;;
8133;SDS011;7113;53.650;9.916;2022-07-01T19:26:17;2.30;;;2.20;;
8133;SDS011;7113;53.650;9.916;2022-07-01T19:28:24;5.03;;;2.37;;
8133;SDS011;7113;53.650;9.916;2022-07-01T19:30:27;3.37;;;1.87;;
8133;SDS011;7113;53.650;9.916;2022-07-01T19:32:30;2.33;;;2.13;;
8133;SDS011;7113;53.650;9.916;2022-07-01T19:34:33;6.13;;;2.03;;
8133;SDS011;7113;53.650;9.916;2022-07-01T19:36:36;4.87;;;2.23;;
8133;SDS011;7113;53.650;9.916;2022-07-01T19:38:39;2.00;;;1.90;;
8133;SDS011;7113;53.650;9.916;2022-07-01T19:40:42;2.37;;;1.90;;
8133;SDS011;7113;53.650;9.916;2022-07-01T19:42:45;2.60;;;2.40;;
8133;SDS011;7113;53.650;9.916;2022-07-01T19:44:51;3.53;;;2.13;;
8133;SDS011;7113;53.650;9.916;2022-07-01T19:46:54;7.77;;;2.20;;
8133;SDS011;7113;53.650;9.916;2022-07-01T19:48:57;2.47;;;2.37;;
8133;SDS011;7113;53.650;9.916;2022-07-01T19:51:02;11.53;;;3.17;;
8133;SDS011;7113;53.650;9.916;2022-07-01T19:53:05;5.70;;;2.20;;
8133;SDS011;7113;53.650;9.916;2022-07-01T19:55:08;5.87;;;2.87;;
8133;SDS011;7113;53.650;9.916;2022-07-01T19:57:12;6.30;;;2.43;;
8133;SDS011;7113;53.650;9.916;2022-07-01T19:59:15;3.87;;;2.80;;
8133;SDS011;7113;53.650;9.916;2022-07-01T20:01:21;9.83;;;2.83;;
8133;SDS011;7113;53.650;9.916;2022-07-01T20:03:24;5.77;;;2.93;;
8133;SDS011;7113;53.650;9.916;2022-07-01T20:05:27;5.33;;;2.60;;
8133;SDS011;7113;53.650;9.916;2022-07-01T20:07:30;4.63;;;2.40;;
8133;SDS011;7113;53.650;9.916;2022-07-01T20:09:35;2.27;;;1.90;;
8133;SDS011;7113;53.650;9.916;2022-07-01T20:11:38;2.50;;;2.30;;
8133;SDS011;7113;53.650;9.916;2022-07-01T20:13:42;4.53;;;2.53;;
8133;SDS011;7113;53.650;9.916;2022-07-01T20:15:45;2.60;;;2.40;;
8133;SDS011;7113;53.650;9.916;2022-07-01T20:17:51;2.70;;;2.40;;
8133;SDS011;7113;53.650;9.916;2022-07-01T20:19:54;2.83;;;2.60;;
8133;SDS011;7113;53.650;9.916;2022-07-01T20:21:57;7.03;;;2.60;;
8133;SDS011;7113;53.650;9.916;2022-07-01T20:24:00;3.67;;;2.83;;
8133;SDS011;7113;53.650;9.916;2022-07-01T20:26:03;9.50;;;3.03;;
8133;SDS011;7113;53.650;9.916;2022-07-01T20:28:07;3.37;;;2.80;;
8133;SDS011;7113;53.650;9.916;2022-07-01T20:30:11;6.37;;;2.40;;
8133;SDS011;7113;53.650;9.916;2022-07-01T20:32:14;2.83;;;2.70;;
8133;SDS011;7113;53.650;9.916;2022-07-01T20:34:20;6.77;;;2.87;;
8133;SDS011;7113;53.650;9.916;2022-07-01T20:36:23;2.87;;;2.63;;
8133;SDS011;7113;53.650;9.916;2022-07-01T20:38:28;10.83;;;3.67;;
8133;SDS011;7113;53.650;9.916;2022-07-01T20:40:31;6.43;;;3.27;;
8133;SDS011;7113;53.650;9.916;2022-07-01T20:42:37;2.90;;;2.60;;
8133;SDS011;7113;53.650;9.916;2022-07-01T20:44:40;4.03;;;2.67;;
8133;SDS011;7113;53.650;9.916;2022-07-01T20:46:43;5.90;;;3.00;;
8133;SDS011;7113;53.650;9.916;2022-07-01T20:48:46;4.97;;;2.73;;
8133;SDS011;7113;53.650;9.916;2022-07-01T20:50:52;6.77;;;3.50;;
8133;SDS011;7113;53.650;9.916;2022-07-01T20:52:55;4.63;;;3.03;;
8133;SDS011;7113;53.650;9.916;2022-07-01T20:54:59;3.57;;;3.27;;
8133;SDS011;7113;53.650;9.916;2022-07-01T20:57:02;3.33;;;3.13;;
8133;SDS011;7113;53.650;9.916;2022-07-01T20:59:05;3.73;;;3.43;;
8133;SDS011;7113;53.650;9.916;2022-07-01T21:01:08;3.30;;;2.77;;
8133;SDS011;7113;53.650;9.916;2022-07-01T21:03:11;2.97;;;2.73;;
8133;SDS011;7113;53.650;9.916;2022-07-01T21:05:15;3.27;;;2.83;;
8133;SDS011;7113;53.650;9.916;2022-07-01T21:07:23;9.83;;;3.90;;
8133;SDS011;7113;53.650;9.916;2022-07-01T21:09:26;6.63;;;3.63;;
8133;SDS011;7113;53.650;9.916;2022-07-01T21:11:29;8.83;;;3.63;;
8133;SDS011;7113;53.650;9.916;2022-07-01T21:13:32;5.10;;;4.20;;
8133;SDS011;7113;53.650;9.916;2022-07-01T21:15:35;10.47;;;3.80;;
8133;SDS011;7113;53.650;9.916;2022-07-01T21:17:38;5.43;;;3.63;;
8133;SDS011;7113;53.650;9.916;2022-07-01T21:19:41;4.60;;;3.53;;
8133;SDS011;7113;53.650;9.916;2022-07-01T21:21:44;3.40;;;3.03;;
8133;SDS011;7113;53.650;9.916;2022-07-01T21:23:50;4.17;;;3.17;;
8133;SDS011;7113;53.650;9.916;2022-07-01T21:25:54;3.80;;;3.03;;
8133;SDS011;7113;53.650;9.916;2022-07-01T21:27:57;4.63;;;3.23;;
8133;SDS011;7113;53.650;9.916;2022-07-01T21:30:00;5.40;;;2.77;;
8133;SDS011;7113;53.650;9.916;2022-07-01T21:32:04;5.60;;;3.60;;
8133;SDS011;7113;53.650;9.916;2022-07-01T21:34:07;3.50;;;2.80;;
8133;SDS011;7113;53.650;9.916;2022-07-01T21:36:10;6.57;;;4.63;;
8133;SDS011;7113;53.650;9.916;2022-07-01T21:38:14;12.97;;;2.93;;
8133;SDS011;7113;53.650;9.916;2022-07-01T21:40:20;10.80;;;3.57;;
8133;SDS011;7113;53.650;9.916;2022-07-01T21:42:26;3.20;;;2.90;;
8133;SDS011;7113;53.650;9.916;2022-07-01T21:44:29;2.90;;;2.70;;
8133;SDS011;7113;53.650;9.916;2022-07-01T21:46:34;8.33;;;3.40;;
8133;SDS011;7113;53.650;9.916;2022-07-01T21:48:38;3.40;;;3.10;;
8133;SDS011;7113;53.650;9.916;2022-07-01T21:50:45;5.47;;;3.07;;
8133;SDS011;7113;53.650;9.916;2022-07-01T21:52:49;3.90;;;3.50;;
8133;SDS011;7113;53.650;9.916;2022-07-01T21:54:52;5.10;;;3.57;;
8133;SDS011;7113;53.650;9.916;2022-07-01T21:57:00;2.90;;;2.70;;
8133;SDS011;7113;53.650;9.916;2022-07-01T21:59:03;3.53;;;3.20;;
8133;SDS011;7113;53.650;9.916;2022-07-01T22:01:09;3.37;;;3.17;;
8133;SDS011;7113;53.650;9.916;2022-07-01T22:03:12;3.23;;;3.03;;
8133;SDS011;7113;53.650;9.916;2022-07-01T22:05:18;3.77;;;3.57;;
8133;SDS011;7113;53.650;9.916;2022-07-01T22:07:21;14.83;;;4.40;;
8133;SDS011;7113;53.650;9.916;2022-07-01T22:09:25;3.73;;;3.53;;
8133;SDS011;7113;53.650;9.916;2022-07-01T22:11:29;8.13;;;3.53;;
8133;SDS011;7113;53.650;9.916;2022-07-01T22:13:36;4.03;;;3.50;;
8133;SDS011;7113;53.650;9.916;2022-07-01T22:15:43;4.33;;;3.93;;
8133;SDS011;7113;53.650;9.916;2022-07-01T22:17:49;7.20;;;3.73;;
8133;SDS011;7113;53.650;9.916;2022-07-01T22:19:53;4.70;;;3.40;;
8133;SDS011;7113;53.650;9.916;2022-07-01T22:21:57;4.27;;;3.97;;
8133;SDS011;7113;53.650;9.916;2022-07-01T22:24:01;3.20;;;3.10;;
8133;SDS011;7113;53.650;9.916;2022-07-01T22:26:05;4.60;;;4.10;;
8133;SDS011;7113;53.650;9.916;2022-07-01T22:28:08;3.77;;;3.57;;
8133;SDS011;7113;53.650;9.916;2022-07-01T22:30:14;5.97;;;3.97;;
8133;SDS011;7113;53.650;9.916;2022-07-01T22:32:17;3.80;;;3.50;;
8133;SDS011;7113;53.650;9.916;2022-07-01T22:34:21;4.27;;;3.67;;
8133;SDS011;7113;53.650;9.916;2022-07-01T22:36:24;7.73;;;4.23;;
8133;SDS011;7113;53.650;9.916;2022-07-01T22:38:28;6.00;;;5.40;;
8133;SDS011;7113;53.650;9.916;2022-07-01T22:40:31;10.70;;;3.90;;
8133;SDS011;7113;53.650;9.916;2022-07-01T22:42:34;4.50;;;3.83;;
8133;SDS011;7113;53.650;9.916;2022-07-01T22:44:39;5.27;;;4.73;;
8133;SDS011;7113;53.650;9.916;2022-07-01T22:46:50;5.67;;;4.60;;
8133;SDS011;7113;53.650;9.916;2022-07-01T22:48:57;5.63;;;4.20;;
8133;SDS011;7113;53.650;9.916;2022-07-01T22:51:01;6.50;;;4.87;;
8133;SDS011;7113;53.650;9.916;2022-07-01T22:53:09;4.57;;;3.77;;
8133;SDS011;7113;53.650;9.916;2022-07-01T22:55:26;4.77;;;4.37;;
8133;SDS011;7113;53.650;9.916;2022-07-01T22:57:34;3.13;;;2.93;;
8133;SDS011;7113;53.650;9.916;2022-07-01T22:59:37;8.07;;;3.40;;
8133;SDS011;7113;53.650;9.916;2022-07-01T23:01:42;7.87;;;4.50;;
8133;SDS011;7113;53.650;9.916;2022-07-01T23:03:48;3.90;;;3.50;;
8133;SDS011;7113;53.650;9.916;2022-07-01T23:05:53;4.90;;;2.90;;
8133;SDS011;7113;53.650;9.916;2022-07-01T23:07:58;3.50;;;3.30;;
8133;SDS011;7113;53.650;9.916;2022-07-01T23:10:02;4.27;;;3.87;;
8133;SDS011;7113;53.650;9.916;2022-07-01T23:12:07;4.73;;;4.03;;
8133;SDS011;7113;53.650;9.916;2022-07-01T23:14:13;4.80;;;4.40;;
8133;SDS011;7113;53.650;9.916;2022-07-01T23:16:29;4.40;;;3.33;;
8133;SDS011;7113;53.650;9.916;2022-07-01T23:18:32;4.73;;;3.23;;
8133;SDS011;7113;53.650;9.916;2022-07-01T23:20:37;4.50;;;3.73;;
8133;SDS011;7113;53.650;9.916;2022-07-01T23:22:41;11.23;;;3.50;;
8133;SDS011;7113;53.650;9.916;2022-07-01T23:24:46;8.50;;;4.30;;
8133;SDS011;7113;53.650;9.916;2022-07-01T23:26:52;7.83;;;4.17;;
8133;SDS011;7113;53.650;9.916;2022-07-01T23:28:56;5.50;;;3.87;;
8133;SDS011;7113;53.650;9.916;2022-07-01T23:30:59;4.20;;;3.30;;
8133;SDS011;7113;53.650;9.916;2022-07-01T23:33:04;4.93;;;4.50;;
8133;SDS011;7113;53.650;9.916;2022-07-01T23:35:08;7.13;;;4.13;;
8133;SDS011;7113;53.650;9.916;2022-07-01T23:37:14;3.43;;;3.23;;
8133;SDS011;7113;53.650;9.916;2022-07-01T23:39:17;14.63;;;4.37;;
8133;SDS011;7113;53.650;9.916;2022-07-01T23:41:22;9.27;;;4.10;;
8133;SDS011;7113;53.650;9.916;2022-07-01T23:43:26;4.63;;;4.13;;
8133;SDS011;7113;53.650;9.916;2022-07-01T23:45:29;3.53;;;3.33;;
8133;SDS011;7113;53.650;9.916;2022-07-01T23:47:32;3.60;;;3.40;;
8133;SDS011;7113;53.650;9.916;2022-07-01T23:49:37;3.97;;;3.67;;
8133;SDS011;7113;53.650;9.916;2022-07-01T23:51:41;6.20;;;4.07;;
8133;SDS011;7113;53.650;9.916;2022-07-01T23:53:46;7.43;;;3.83;;
8133;SDS011;7113;53.650;9.916;2022-07-01T23:55:49;4.67;;;4.23;;
8133;SDS011;7113;53.650;9.916;2022-07-01T23:57:52;5.27;;;4.77;;
8133;SDS011;7113;53.650;9.916;2022-07-01T23:59:55;5.33;;;4.83;;
